createdAt,value
2022-12-20T06:50:10.029Z,5.57
2022-12-20T06:53:11.969Z,6.18
2022-12-20T06:56:13.623Z,7.47
2022-12-20T06:59:15.508Z,11.32
2022-12-20T07:02:17.447Z,5.22
2022-12-20T07:05:19.205Z,2.67
2022-12-20T07:08:22.014Z,5.10
2022-12-20T07:11:24.109Z,4.82
2022-12-20T07:14:26.692Z,4.63
2022-12-20T07:17:28.527Z,5.55
2022-12-20T07:20:30.756Z,3.45
2022-12-20T07:23:32.606Z,3.67
2022-12-20T07:26:34.292Z,3.15
2022-12-20T07:29:36.285Z,7.40
2022-12-20T07:32:38.018Z,7.28
2022-12-20T07:35:40.431Z,3.75
2022-12-20T07:38:42.799Z,2.45
2022-12-20T07:41:44.995Z,3.60
2022-12-20T07:44:47.661Z,4.97
2022-12-20T07:47:49.334Z,5.88
2022-12-20T07:50:54.662Z,2.72
2022-12-20T07:57:10.808Z,4.95
2022-12-20T08:00:13.491Z,5.28
2022-12-20T08:03:23.848Z,3.15
2022-12-20T08:06:25.763Z,3.40
2022-12-20T08:09:30.519Z,6.32
2022-12-20T08:12:33.214Z,4.95
2022-12-20T08:15:36.242Z,5.85
2022-12-20T08:18:37.923Z,3.78
2022-12-20T08:21:39.892Z,4.32
2022-12-20T08:24:41.619Z,4.30
2022-12-20T08:27:43.658Z,4.43
2022-12-20T08:30:45.395Z,6.22
2022-12-20T08:33:47.236Z,3.80
2022-12-20T08:36:48.896Z,3.35
2022-12-20T08:39:50.546Z,3.88
2022-12-20T08:42:52.308Z,6.75
2022-12-20T08:45:55.398Z,7.30
2022-12-20T08:48:57.247Z,6.72
2022-12-20T08:51:58.922Z,8.55
2022-12-20T08:55:02.034Z,11.95
2022-12-20T08:58:04.195Z,15.15
2022-12-20T09:01:08.653Z,13.52
2022-12-20T09:04:11.717Z,14.18
2022-12-20T09:07:13.600Z,12.93
2022-12-20T09:10:15.403Z,15.30
2022-12-20T09:13:17.402Z,17.50
2022-12-20T09:16:21.769Z,19.17
2022-12-20T09:19:23.514Z,19.02
2022-12-20T09:22:25.414Z,7.53
2022-12-20T09:25:28.278Z,18.40
2022-12-20T09:28:31.141Z,13.48
2022-12-20T09:31:32.877Z,15.00
2022-12-20T09:34:34.611Z,16.90
2022-12-20T09:37:36.320Z,21.83
2022-12-20T09:40:38.712Z,19.10
2022-12-20T09:43:41.723Z,17.50
2022-12-20T09:46:46.637Z,18.45
2022-12-20T09:49:53.861Z,21.92
2022-12-20T09:53:14.831Z,12.50
2022-12-20T09:56:30.228Z,8.15
2022-12-20T09:59:40.414Z,8.07
2022-12-20T10:03:00.239Z,6.57
2022-12-20T10:06:30.031Z,4.55
2022-12-20T10:10:03.303Z,5.75
2022-12-20T10:13:30.346Z,4.68
2022-12-20T10:16:52.119Z,3.25
2022-12-20T10:20:01.216Z,5.13
2022-12-20T10:23:40.696Z,4.18
2022-12-20T10:26:42.855Z,3.10
2022-12-20T10:29:45.032Z,5.10
2022-12-20T10:32:50.341Z,5.38
2022-12-20T10:35:52.355Z,7.43
2022-12-20T10:38:57.442Z,4.57
2022-12-20T10:41:59.252Z,5.40
2022-12-20T10:45:01.365Z,6.88
2022-12-20T10:48:06.624Z,4.78
2022-12-20T10:54:32.775Z,5.68
2022-12-20T10:57:34.481Z,5.03
2022-12-20T11:00:36.155Z,6.65
2022-12-20T11:03:54.573Z,4.80
2022-12-20T11:06:57.149Z,4.88
2022-12-20T11:10:01.694Z,4.90
2022-12-20T11:13:04.233Z,6.70
2022-12-20T11:16:06.413Z,7.63
2022-12-20T11:19:28.966Z,17.88
2022-12-20T11:22:56.439Z,15.95
2022-12-20T11:26:29.652Z,20.00
2022-12-20T11:30:10.040Z,13.65
2022-12-20T11:33:32.437Z,4.68
2022-12-20T11:36:52.810Z,6.18
2022-12-20T11:40:34.172Z,5.47
2022-12-20T11:44:24.470Z,11.48
2022-12-20T11:47:51.458Z,9.77
2022-12-20T11:51:04.299Z,10.45
2022-12-20T11:54:20.991Z,15.35
2022-12-20T11:57:29.703Z,7.32
2022-12-20T12:00:36.997Z,8.77
2022-12-20T12:03:43.259Z,11.77
2022-12-20T12:06:49.973Z,9.00
2022-12-20T12:10:01.005Z,4.35
2022-12-20T12:13:24.964Z,7.70
2022-12-20T12:16:32.272Z,9.38
2022-12-20T12:19:37.280Z,8.02
2022-12-20T12:22:40.487Z,11.50
2022-12-20T12:25:42.396Z,10.85
2022-12-20T12:28:44.305Z,13.60
2022-12-20T12:32:10.504Z,11.93
2022-12-20T12:35:52.289Z,14.65
2022-12-20T12:39:11.884Z,21.80
2022-12-20T12:42:31.725Z,16.40
2022-12-20T12:45:40.934Z,18.73
2022-12-20T12:48:50.957Z,12.93
2022-12-20T12:51:57.472Z,8.10
2022-12-20T12:54:59.144Z,10.23
2022-12-20T12:58:14.232Z,21.83
2022-12-20T13:01:56.186Z,6.53
2022-12-20T13:05:01.982Z,19.33
2022-12-20T13:08:04.747Z,8.82
2022-12-20T13:11:12.913Z,13.68
2022-12-20T13:14:18.936Z,5.63
2022-12-20T13:17:26.244Z,3.63
2022-12-20T13:20:32.843Z,5.40
2022-12-20T13:23:34.587Z,4.90
2022-12-20T13:26:51.777Z,5.88
2022-12-20T13:30:01.065Z,6.03
2022-12-20T13:33:23.320Z,4.47
2022-12-20T13:36:41.224Z,7.30
2022-12-20T13:39:48.060Z,8.13
2022-12-20T13:42:53.760Z,5.05
2022-12-20T13:46:05.971Z,4.90
2022-12-20T13:49:12.439Z,9.60
2022-12-20T13:52:32.079Z,4.20
2022-12-20T13:55:37.813Z,4.90
2022-12-20T13:58:43.573Z,5.28
2022-12-20T14:01:50.688Z,5.85
2022-12-20T14:04:59.257Z,4.65
2022-12-20T14:08:05.438Z,7.13
2022-12-20T14:11:11.200Z,5.55
2022-12-20T14:14:14.752Z,9.80
2022-12-20T14:17:33.200Z,4.70
2022-12-20T14:20:37.588Z,4.75
2022-12-20T14:23:42.148Z,4.73
2022-12-20T14:26:48.209Z,5.50
2022-12-20T14:29:51.965Z,5.28
2022-12-20T14:32:56.091Z,7.10
2022-12-20T14:36:07.006Z,9.20
2022-12-20T14:39:29.011Z,4.82
2022-12-20T14:42:35.074Z,9.00
2022-12-20T14:45:36.839Z,7.13
2022-12-20T14:48:38.507Z,5.10
2022-12-20T14:51:40.590Z,6.95
2022-12-20T14:58:27.303Z,7.47
2022-12-20T15:01:33.890Z,5.95
2022-12-20T15:04:38.821Z,5.88
2022-12-20T15:07:41.816Z,3.60
2022-12-20T15:10:48.619Z,4.13
2022-12-20T15:13:54.491Z,4.95
2022-12-20T15:16:56.374Z,6.53
2022-12-20T15:19:59.129Z,15.77
2022-12-20T15:23:01.911Z,6.65
2022-12-20T15:26:03.673Z,8.30
2022-12-20T15:29:06.264Z,7.38
2022-12-20T15:32:21.037Z,6.18
2022-12-20T15:35:22.899Z,8.77
2022-12-20T15:38:41.262Z,5.95
2022-12-20T15:41:49.904Z,4.22
2022-12-20T15:44:51.608Z,10.15
2022-12-20T15:47:54.713Z,7.20
2022-12-20T15:50:58.901Z,6.38
2022-12-20T15:54:03.348Z,4.20
2022-12-20T15:57:07.996Z,8.48
2022-12-20T16:00:12.222Z,5.68
2022-12-20T16:03:20.289Z,5.50
2022-12-20T16:06:23.127Z,6.15
2022-12-20T16:09:26.002Z,4.88
2022-12-20T16:12:32.337Z,5.03
2022-12-20T16:15:34.804Z,4.75
2022-12-20T16:18:36.513Z,8.63
2022-12-20T16:21:47.844Z,7.57
2022-12-20T16:24:49.776Z,7.57
2022-12-20T16:27:51.873Z,6.53
2022-12-20T16:30:53.841Z,5.32
2022-12-20T16:33:56.876Z,7.30
2022-12-20T16:36:58.527Z,10.38
2022-12-20T16:40:00.196Z,4.82
2022-12-20T16:43:02.140Z,7.38
2022-12-20T16:46:03.858Z,5.00
2022-12-20T16:49:05.903Z,8.75
2022-12-20T16:52:17.720Z,5.38
2022-12-20T16:55:23.969Z,6.13
2022-12-20T16:58:45.015Z,6.20
